Terminal Aerodrome Forecast
Issued by NWS

Home | Current Version | Previous Version | Graphics & Text | Print | Product List | Glossary Off
Versions: 1 2 3 4 5 6 7 8 9 10 11 12 13 14

000
FTUS43 KTOP 020500
TAFMHK
TAF
KMHK 020520Z 0206/0306 18018G24KT P6SM SKC
     FM020630 20016G23KT P6SM VCTS SCT035CB
     FM020700 33010G18KT 4SM -TSRA OVC030CB
     FM021100 02010KT P6SM SCT080=

USA.gov is the U.S. government's official web portal to all federal, state and local government web resources and services.